Share

Winkler County, TX

Odessa-Schlemeyer (KODO) Elev 2999 ft | 31.92 °N, 102.39 °W | Change Station

Current weather conditions updated 4 minutes ago

Clear
Clear
62 °F
Feels Like 62 °F
N
18
Wind Variable Wind from SSE
Gusts 28 mph
Sunrise 7:22 AM
Sunset 8:22 PM
Moon Waning Gibbous

Tomorrow is forecast to be Cooler than today.

Pressure 29.73 in
Visibility 10.0 miles
Clouds Clear
Dew Point 32 °F
Humidity 32%
Rainfall 0.00 in
Snow Depth Not available.
UV 0 out of 16
Pollen 9.10 out of 12
Air Quality Not available.
Flu Activity Local Activity
METAR KODO 170353Z AUTO 16016G24KT 10SM CLR 17/00 A2982 RMK AO2 SLP068 T01670000 TSNO

More Conditions Fewer Conditions

Pressure 29.73 in
Visibility 10.0 miles
Clouds Clear
Dew Point 32 °F
Humidity 32%
Rainfall 0.00 in
Snow Depth Not available.
UV 0 out of 16
Pollen 9.10 out of 12
Air Quality Not available.
Flu Activity Local Activity
METAR KODO 170353Z AUTO 16016G24KT 10SM CLR 17/00 A2982 RMK AO2 SLP068 T01670000 TSNO

More Conditions Fewer Conditions

10-Day Forecast

Almanac

Astronomy

Apr. 16, 2014 Rise Set
Actual Time 7:22 AM CDT 8:22 PM CDT
Civil Twilight 6:57 AM CDT 8:47 PM CDT
Nautical Twilight 6:28 AM CDT 9:17 PM CDT
Astronomical Twilight 5:57 AM CDT 9:48 PM CDT
Moon 10:03 PM CDT (4/16) 8:15 AM CDT (4/16)
Length of Visible Light 13h 49m
Length of Day
12h 59m
Tomorrow will be 1m 50s longer.
Waning Gibbous, 96% of the Moon is Illuminated
Today
Waning Gibbous
Apr 22
Last Quarter
Apr 29
New
May 6
First Quarter
May 14
Full

Today's Extremes

State Highs State Lows

Community

  • symphony in blue....
    symphony in blue....
  • Dawn Surprise
    Dawn Surprise
  • Yucca delight
    Yucca delight
  • Sunset inside of the Ocean
    Sunset inside of the Ocean
  • Lunar eclipse 15 April 2014
    Lunar eclipse 15 April 2014

WunderPhotos

Upload Photos

1,701,845 photos uploaded!

WunderBlogs® & News

Nearby

Snow Depth

Station Depth Elevation
No new snow has been reported.

Coastal Water Temperatures

Place Temperature
No Stations Reporting

Earthquake Activity

City Distance Mag. Time & Date
No recent earthquake activity has been reported nearby.
Minimum magnitude displayed is 2.5.

Nearby Weather Stations

Station Location Temp. Heat Index Dew Point Humidity Wind Precip. Elev Updated Type
MesoWest PYOTE , Barstow, TX 73 °F 71 °F - - North  at  - 0.00 in / hr 2669 ft 9:10 PM CDT MADIS

Show More Stations Show Fewer Stations

What do you think?

We're not finished. Please let us know what you like, what you don't like, and what you are still missing.